sensor_id;sensor_type;location;lat;lon;timestamp;P1;durP1;ratioP1;P2;durP2;ratioP2
52878;SDS011;38747;53.140;6.498;2023-01-10T00:00:11;12.32;;;1.95;;
52878;SDS011;38747;53.140;6.498;2023-01-10T00:02:37;10.77;;;2.00;;
52878;SDS011;38747;53.140;6.498;2023-01-10T00:05:03;10.73;;;2.20;;
52878;SDS011;38747;53.140;6.498;2023-01-10T00:07:29;10.10;;;1.88;;
52878;SDS011;38747;53.140;6.498;2023-01-10T00:09:55;11.70;;;2.03;;
52878;SDS011;38747;53.140;6.498;2023-01-10T00:12:20;11.47;;;1.73;;
52878;SDS011;38747;53.140;6.498;2023-01-10T00:15:05;11.05;;;1.92;;
52878;SDS011;38747;53.140;6.498;2023-01-10T00:17:31;14.48;;;2.20;;
52878;SDS011;38747;53.140;6.498;2023-01-10T00:19:56;12.77;;;2.27;;
52878;SDS011;38747;53.140;6.498;2023-01-10T00:22:22;14.80;;;2.20;;
52878;SDS011;38747;53.140;6.498;2023-01-10T00:24:50;11.93;;;1.90;;
52878;SDS011;38747;53.140;6.498;2023-01-10T00:27:16;17.88;;;2.08;;
52878;SDS011;38747;53.140;6.498;2023-01-10T00:29:46;15.05;;;2.22;;
52878;SDS011;38747;53.140;6.498;2023-01-10T00:32:12;14.57;;;2.10;;
52878;SDS011;38747;53.140;6.498;2023-01-10T00:34:38;11.73;;;2.20;;
52878;SDS011;38747;53.140;6.498;2023-01-10T00:37:03;20.53;;;2.57;;
52878;SDS011;38747;53.140;6.498;2023-01-10T00:39:29;15.88;;;2.25;;
52878;SDS011;38747;53.140;6.498;2023-01-10T00:41:55;16.42;;;2.28;;
52878;SDS011;38747;53.140;6.498;2023-01-10T00:44:39;16.07;;;1.70;;
52878;SDS011;38747;53.140;6.498;2023-01-10T00:47:05;19.08;;;2.63;;
52878;SDS011;38747;53.140;6.498;2023-01-10T00:49:30;15.00;;;2.03;;
52878;SDS011;38747;53.140;6.498;2023-01-10T00:51:56;22.95;;;2.83;;
52878;SDS011;38747;53.140;6.498;2023-01-10T00:54:23;17.95;;;2.50;;
52878;SDS011;38747;53.140;6.498;2023-01-10T00:56:49;15.27;;;2.20;;
52878;SDS011;38747;53.140;6.498;2023-01-10T00:59:15;13.77;;;1.80;;
52878;SDS011;38747;53.140;6.498;2023-01-10T01:01:41;18.17;;;2.15;;
52878;SDS011;38747;53.140;6.498;2023-01-10T01:04:07;14.63;;;2.17;;
52878;SDS011;38747;53.140;6.498;2023-01-10T01:06:32;10.95;;;1.88;;
52878;SDS011;38747;53.140;6.498;2023-01-10T01:08:58;12.97;;;1.90;;
52878;SDS011;38747;53.140;6.498;2023-01-10T01:11:24;12.38;;;2.67;;
52878;SDS011;38747;53.140;6.498;2023-01-10T01:13:50;13.00;;;1.83;;
52878;SDS011;38747;53.140;6.498;2023-01-10T01:16:16;12.90;;;2.15;;
52878;SDS011;38747;53.140;6.498;2023-01-10T01:18:42;19.17;;;2.67;;
52878;SDS011;38747;53.140;6.498;2023-01-10T01:21:08;13.23;;;2.25;;
52878;SDS011;38747;53.140;6.498;2023-01-10T01:23:33;14.97;;;1.93;;
52878;SDS011;38747;53.140;6.498;2023-01-10T01:25:59;13.93;;;2.70;;
52878;SDS011;38747;53.140;6.498;2023-01-10T01:28:25;18.27;;;1.70;;
52878;SDS011;38747;53.140;6.498;2023-01-10T01:30:51;12.20;;;2.10;;
52878;SDS011;38747;53.140;6.498;2023-01-10T01:33:17;13.57;;;1.73;;
52878;SDS011;38747;53.140;6.498;2023-01-10T01:35:44;13.90;;;2.00;;
52878;SDS011;38747;53.140;6.498;2023-01-10T01:38:11;15.57;;;2.00;;
52878;SDS011;38747;53.140;6.498;2023-01-10T01:40:38;15.80;;;2.38;;
52878;SDS011;38747;53.140;6.498;2023-01-10T01:43:10;14.10;;;2.30;;
52878;SDS011;38747;53.140;6.498;2023-01-10T01:45:48;11.65;;;2.25;;
52878;SDS011;38747;53.140;6.498;2023-01-10T01:50:55;12.98;;;1.95;;
52878;SDS011;38747;53.140;6.498;2023-01-10T01:53:45;14.13;;;1.90;;
52878;SDS011;38747;53.140;6.498;2023-01-10T01:56:19;10.35;;;1.95;;
52878;SDS011;38747;53.140;6.498;2023-01-10T01:58:55;14.57;;;2.58;;
52878;SDS011;38747;53.140;6.498;2023-01-10T02:01:41;12.97;;;2.33;;
52878;SDS011;38747;53.140;6.498;2023-01-10T02:04:11;15.35;;;1.90;;
52878;SDS011;38747;53.140;6.498;2023-01-10T02:06:41;18.48;;;2.30;;
52878;SDS011;38747;53.140;6.498;2023-01-10T02:11:47;12.85;;;1.92;;
52878;SDS011;38747;53.140;6.498;2023-01-10T02:14:13;14.00;;;1.93;;
52878;SDS011;38747;53.140;6.498;2023-01-10T02:16:39;13.98;;;2.28;;
52878;SDS011;38747;53.140;6.498;2023-01-10T02:19:11;12.93;;;2.40;;
52878;SDS011;38747;53.140;6.498;2023-01-10T02:24:41;14.60;;;1.85;;
52878;SDS011;38747;53.140;6.498;2023-01-10T02:32:53;13.93;;;2.20;;
52878;SDS011;38747;53.140;6.498;2023-01-10T02:35:27;16.02;;;2.30;;
52878;SDS011;38747;53.140;6.498;2023-01-10T02:44:09;12.25;;;1.90;;
52878;SDS011;38747;53.140;6.498;2023-01-10T02:46:45;16.07;;;2.43;;
52878;SDS011;38747;53.140;6.498;2023-01-10T02:49:13;14.10;;;1.88;;
52878;SDS011;38747;53.140;6.498;2023-01-10T02:51:39;11.48;;;1.70;;
52878;SDS011;38747;53.140;6.498;2023-01-10T02:56:46;11.07;;;1.85;;
52878;SDS011;38747;53.140;6.498;2023-01-10T03:02:18;11.63;;;2.00;;
52878;SDS011;38747;53.140;6.498;2023-01-10T03:05:23;15.85;;;2.05;;
52878;SDS011;38747;53.140;6.498;2023-01-10T03:10:42;18.23;;;2.08;;
52878;SDS011;38747;53.140;6.498;2023-01-10T03:13:16;16.15;;;1.80;;
52878;SDS011;38747;53.140;6.498;2023-01-10T03:15:47;15.50;;;2.10;;
52878;SDS011;38747;53.140;6.498;2023-01-10T03:18:27;12.60;;;1.50;;
52878;SDS011;38747;53.140;6.498;2023-01-10T03:20:57;16.52;;;2.10;;
52878;SDS011;38747;53.140;6.498;2023-01-10T03:23:26;13.48;;;1.90;;
52878;SDS011;38747;53.140;6.498;2023-01-10T03:25:54;14.32;;;1.80;;
52878;SDS011;38747;53.140;6.498;2023-01-10T03:28:31;13.63;;;1.57;;
52878;SDS011;38747;53.140;6.498;2023-01-10T03:31:05;14.30;;;2.00;;
52878;SDS011;38747;53.140;6.498;2023-01-10T03:33:46;16.60;;;2.10;;
52878;SDS011;38747;53.140;6.498;2023-01-10T03:38:52;13.93;;;1.52;;
52878;SDS011;38747;53.140;6.498;2023-01-10T03:52:43;15.57;;;2.95;;
52878;SDS011;38747;53.140;6.498;2023-01-10T03:55:10;18.63;;;2.40;;
52878;SDS011;38747;53.140;6.498;2023-01-10T03:57:40;15.52;;;2.13;;
52878;SDS011;38747;53.140;6.498;2023-01-10T04:00:06;13.52;;;1.88;;
52878;SDS011;38747;53.140;6.498;2023-01-10T04:02:34;11.03;;;1.70;;
52878;SDS011;38747;53.140;6.498;2023-01-10T04:04:59;11.23;;;1.77;;
52878;SDS011;38747;53.140;6.498;2023-01-10T04:07:25;13.53;;;1.77;;
52878;SDS011;38747;53.140;6.498;2023-01-10T04:09:51;11.48;;;1.95;;
52878;SDS011;38747;53.140;6.498;2023-01-10T04:12:16;7.97;;;1.70;;
52878;SDS011;38747;53.140;6.498;2023-01-10T04:14:42;12.65;;;1.58;;
52878;SDS011;38747;53.140;6.498;2023-01-10T04:17:10;14.02;;;2.08;;
52878;SDS011;38747;53.140;6.498;2023-01-10T04:19:36;16.05;;;1.80;;
52878;SDS011;38747;53.140;6.498;2023-01-10T04:22:02;15.13;;;2.00;;
52878;SDS011;38747;53.140;6.498;2023-01-10T04:24:29;9.25;;;1.80;;
52878;SDS011;38747;53.140;6.498;2023-01-10T04:26:55;12.90;;;2.43;;
52878;SDS011;38747;53.140;6.498;2023-01-10T04:29:21;10.13;;;1.77;;
52878;SDS011;38747;53.140;6.498;2023-01-10T04:31:47;13.83;;;2.10;;
52878;SDS011;38747;53.140;6.498;2023-01-10T04:34:12;14.93;;;1.80;;
52878;SDS011;38747;53.140;6.498;2023-01-10T04:36:38;14.20;;;2.20;;
52878;SDS011;38747;53.140;6.498;2023-01-10T04:39:04;13.82;;;2.03;;
52878;SDS011;38747;53.140;6.498;2023-01-10T04:41:29;11.57;;;1.90;;
52878;SDS011;38747;53.140;6.498;2023-01-10T04:43:55;8.97;;;1.90;;
52878;SDS011;38747;53.140;6.498;2023-01-10T04:46:21;15.50;;;2.55;;
52878;SDS011;38747;53.140;6.498;2023-01-10T04:48:46;15.03;;;1.90;;
52878;SDS011;38747;53.140;6.498;2023-01-10T04:51:12;13.67;;;1.90;;
52878;SDS011;38747;53.140;6.498;2023-01-10T04:53:38;12.25;;;2.00;;
52878;SDS011;38747;53.140;6.498;2023-01-10T04:56:04;14.67;;;2.03;;
52878;SDS011;38747;53.140;6.498;2023-01-10T04:58:34;21.75;;;2.05;;
52878;SDS011;38747;53.140;6.498;2023-01-10T05:01:10;20.25;;;2.35;;
52878;SDS011;38747;53.140;6.498;2023-01-10T05:03:37;12.50;;;1.90;;
52878;SDS011;38747;53.140;6.498;2023-01-10T05:06:03;14.47;;;1.90;;
52878;SDS011;38747;53.140;6.498;2023-01-10T05:08:29;18.38;;;1.85;;
52878;SDS011;38747;53.140;6.498;2023-01-10T05:10:55;17.15;;;2.20;;
52878;SDS011;38747;53.140;6.498;2023-01-10T05:13:21;15.63;;;2.20;;
52878;SDS011;38747;53.140;6.498;2023-01-10T05:15:46;13.93;;;1.70;;
52878;SDS011;38747;53.140;6.498;2023-01-10T05:18:12;16.23;;;2.27;;
52878;SDS011;38747;53.140;6.498;2023-01-10T05:20:38;12.23;;;1.50;;
52878;SDS011;38747;53.140;6.498;2023-01-10T05:23:03;12.70;;;2.22;;
52878;SDS011;38747;53.140;6.498;2023-01-10T05:25:29;15.07;;;1.80;;
52878;SDS011;38747;53.140;6.498;2023-01-10T05:27:54;16.08;;;2.08;;
52878;SDS011;38747;53.140;6.498;2023-01-10T05:30:20;13.90;;;2.00;;
52878;SDS011;38747;53.140;6.498;2023-01-10T05:32:46;13.20;;;2.13;;
52878;SDS011;38747;53.140;6.498;2023-01-10T05:35:11;14.93;;;1.90;;
52878;SDS011;38747;53.140;6.498;2023-01-10T05:37:37;17.80;;;2.57;;
52878;SDS011;38747;53.140;6.498;2023-01-10T05:40:03;14.95;;;2.35;;
52878;SDS011;38747;53.140;6.498;2023-01-10T05:42:29;14.27;;;2.17;;
52878;SDS011;38747;53.140;6.498;2023-01-10T05:44:55;14.03;;;1.83;;
52878;SDS011;38747;53.140;6.498;2023-01-10T05:47:20;13.87;;;1.93;;
52878;SDS011;38747;53.140;6.498;2023-01-10T05:49:46;16.03;;;2.00;;
52878;SDS011;38747;53.140;6.498;2023-01-10T05:52:11;12.47;;;1.87;;
52878;SDS011;38747;53.140;6.498;2023-01-10T05:54:37;15.35;;;2.08;;
52878;SDS011;38747;53.140;6.498;2023-01-10T05:57:03;10.23;;;1.80;;
52878;SDS011;38747;53.140;6.498;2023-01-10T05:59:28;11.23;;;1.70;;
52878;SDS011;38747;53.140;6.498;2023-01-10T06:01:54;11.97;;;1.90;;
52878;SDS011;38747;53.140;6.498;2023-01-10T06:04:20;18.42;;;2.45;;
52878;SDS011;38747;53.140;6.498;2023-01-10T06:06:45;17.63;;;2.80;;
52878;SDS011;38747;53.140;6.498;2023-01-10T06:09:11;14.38;;;2.78;;
52878;SDS011;38747;53.140;6.498;2023-01-10T06:11:36;12.43;;;2.43;;
52878;SDS011;38747;53.140;6.498;2023-01-10T06:14:03;16.02;;;2.65;;
52878;SDS011;38747;53.140;6.498;2023-01-10T06:16:29;12.13;;;2.28;;
52878;SDS011;38747;53.140;6.498;2023-01-10T06:18:55;12.27;;;2.20;;
52878;SDS011;38747;53.140;6.498;2023-01-10T06:21:21;15.52;;;2.08;;
52878;SDS011;38747;53.140;6.498;2023-01-10T06:23:46;11.50;;;1.80;;
52878;SDS011;38747;53.140;6.498;2023-01-10T06:26:12;12.93;;;1.92;;
52878;SDS011;38747;53.140;6.498;2023-01-10T06:28:38;12.30;;;2.00;;
52878;SDS011;38747;53.140;6.498;2023-01-10T06:31:05;12.02;;;1.90;;
52878;SDS011;38747;53.140;6.498;2023-01-10T06:33:32;12.00;;;1.70;;
52878;SDS011;38747;53.140;6.498;2023-01-10T06:35:58;12.70;;;2.17;;
52878;SDS011;38747;53.140;6.498;2023-01-10T06:38:23;10.40;;;1.90;;
52878;SDS011;38747;53.140;6.498;2023-01-10T06:40:49;9.23;;;1.60;;
52878;SDS011;38747;53.140;6.498;2023-01-10T06:43:15;6.67;;;1.60;;
52878;SDS011;38747;53.140;6.498;2023-01-10T06:45:40;10.80;;;1.70;;
52878;SDS011;38747;53.140;6.498;2023-01-10T06:48:06;8.90;;;1.75;;
52878;SDS011;38747;53.140;6.498;2023-01-10T06:50:31;9.43;;;1.27;;
52878;SDS011;38747;53.140;6.498;2023-01-10T06:52:58;9.05;;;1.30;;
52878;SDS011;38747;53.140;6.498;2023-01-10T06:55:25;9.90;;;1.80;;
52878;SDS011;38747;53.140;6.498;2023-01-10T06:58:01;9.23;;;1.33;;
52878;SDS011;38747;53.140;6.498;2023-01-10T07:00:29;10.95;;;1.42;;
52878;SDS011;38747;53.140;6.498;2023-01-10T07:02:58;10.27;;;1.70;;
52878;SDS011;38747;53.140;6.498;2023-01-10T07:05:25;12.65;;;2.10;;
52878;SDS011;38747;53.140;6.498;2023-01-10T07:07:50;9.83;;;1.70;;
52878;SDS011;38747;53.140;6.498;2023-01-10T07:10:16;12.07;;;2.22;;
52878;SDS011;38747;53.140;6.498;2023-01-10T07:12:42;11.50;;;2.13;;
52878;SDS011;38747;53.140;6.498;2023-01-10T07:15:08;13.15;;;2.40;;
52878;SDS011;38747;53.140;6.498;2023-01-10T07:17:34;12.40;;;2.25;;
52878;SDS011;38747;53.140;6.498;2023-01-10T07:20:00;14.27;;;2.53;;
52878;SDS011;38747;53.140;6.498;2023-01-10T07:22:25;17.03;;;2.93;;
52878;SDS011;38747;53.140;6.498;2023-01-10T07:24:51;14.65;;;2.28;;
52878;SDS011;38747;53.140;6.498;2023-01-10T07:27:18;15.27;;;2.78;;
52878;SDS011;38747;53.140;6.498;2023-01-10T07:29:44;13.63;;;2.40;;
52878;SDS011;38747;53.140;6.498;2023-01-10T07:32:09;15.50;;;2.25;;
52878;SDS011;38747;53.140;6.498;2023-01-10T07:34:35;16.03;;;2.57;;
52878;SDS011;38747;53.140;6.498;2023-01-10T07:37:01;16.13;;;2.83;;
52878;SDS011;38747;53.140;6.498;2023-01-10T07:39:26;17.50;;;3.30;;
52878;SDS011;38747;53.140;6.498;2023-01-10T07:41:52;19.33;;;3.30;;
52878;SDS011;38747;53.140;6.498;2023-01-10T07:44:19;19.25;;;3.30;;
52878;SDS011;38747;53.140;6.498;2023-01-10T07:46:44;17.90;;;2.77;;
52878;SDS011;38747;53.140;6.498;2023-01-10T07:49:10;19.33;;;2.70;;
52878;SDS011;38747;53.140;6.498;2023-01-10T07:51:38;22.40;;;3.38;;
52878;SDS011;38747;53.140;6.498;2023-01-10T07:54:03;13.98;;;2.67;;
52878;SDS011;38747;53.140;6.498;2023-01-10T07:56:29;15.67;;;2.70;;
52878;SDS011;38747;53.140;6.498;2023-01-10T07:58:55;19.92;;;3.13;;
52878;SDS011;38747;53.140;6.498;2023-01-10T08:01:21;20.77;;;3.07;;
52878;SDS011;38747;53.140;6.498;2023-01-10T08:03:48;20.73;;;2.85;;
52878;SDS011;38747;53.140;6.498;2023-01-10T08:06:14;19.65;;;3.00;;
52878;SDS011;38747;53.140;6.498;2023-01-10T08:08:39;22.30;;;2.63;;
52878;SDS011;38747;53.140;6.498;2023-01-10T08:11:05;19.38;;;2.83;;
52878;SDS011;38747;53.140;6.498;2023-01-10T08:13:31;19.93;;;2.97;;
52878;SDS011;38747;53.140;6.498;2023-01-10T08:15:57;22.48;;;3.20;;
52878;SDS011;38747;53.140;6.498;2023-01-10T08:18:23;17.07;;;2.80;;
52878;SDS011;38747;53.140;6.498;2023-01-10T08:20:49;25.00;;;4.00;;
52878;SDS011;38747;53.140;6.498;2023-01-10T08:23:16;18.75;;;3.28;;
52878;SDS011;38747;53.140;6.498;2023-01-10T08:25:43;25.80;;;3.47;;
52878;SDS011;38747;53.140;6.498;2023-01-10T08:28:09;15.55;;;3.08;;
52878;SDS011;38747;53.140;6.498;2023-01-10T08:30:35;16.90;;;2.90;;
52878;SDS011;38747;53.140;6.498;2023-01-10T08:33:02;21.90;;;4.13;;
52878;SDS011;38747;53.140;6.498;2023-01-10T08:35:28;22.15;;;3.58;;
52878;SDS011;38747;53.140;6.498;2023-01-10T08:37:58;23.17;;;3.23;;
52878;SDS011;38747;53.140;6.498;2023-01-10T08:40:24;21.20;;;3.20;;
52878;SDS011;38747;53.140;6.498;2023-01-10T08:43:00;21.77;;;3.42;;
52878;SDS011;38747;53.140;6.498;2023-01-10T08:45:30;21.52;;;3.00;;
52878;SDS011;38747;53.140;6.498;2023-01-10T08:47:56;15.20;;;2.67;;
52878;SDS011;38747;53.140;6.498;2023-01-10T08:50:21;17.97;;;2.63;;
52878;SDS011;38747;53.140;6.498;2023-01-10T08:52:47;18.45;;;3.35;;
52878;SDS011;38747;53.140;6.498;2023-01-10T08:55:13;19.77;;;2.83;;
52878;SDS011;38747;53.140;6.498;2023-01-10T08:57:39;25.23;;;3.42;;
52878;SDS011;38747;53.140;6.498;2023-01-10T09:00:04;15.93;;;3.30;;
52878;SDS011;38747;53.140;6.498;2023-01-10T09:02:31;19.17;;;3.00;;
52878;SDS011;38747;53.140;6.498;2023-01-10T09:04:56;21.92;;;3.17;;
52878;SDS011;38747;53.140;6.498;2023-01-10T09:07:22;28.03;;;3.20;;
52878;SDS011;38747;53.140;6.498;2023-01-10T09:09:47;21.93;;;2.70;;
52878;SDS011;38747;53.140;6.498;2023-01-10T09:12:13;25.48;;;3.33;;
52878;SDS011;38747;53.140;6.498;2023-01-10T09:14:57;21.80;;;3.08;;
52878;SDS011;38747;53.140;6.498;2023-01-10T09:17:23;20.87;;;3.30;;
52878;SDS011;38747;53.140;6.498;2023-01-10T09:19:49;19.37;;;2.73;;
52878;SDS011;38747;53.140;6.498;2023-01-10T09:22:14;17.13;;;2.85;;
52878;SDS011;38747;53.140;6.498;2023-01-10T09:24:40;19.43;;;3.40;;
52878;SDS011;38747;53.140;6.498;2023-01-10T09:27:08;16.20;;;2.90;;
52878;SDS011;38747;53.140;6.498;2023-01-10T09:29:34;22.95;;;3.10;;
52878;SDS011;38747;53.140;6.498;2023-01-10T09:31:59;18.97;;;2.83;;
52878;SDS011;38747;53.140;6.498;2023-01-10T09:34:25;17.55;;;2.90;;
52878;SDS011;38747;53.140;6.498;2023-01-10T09:36:52;22.20;;;3.57;;
52878;SDS011;38747;53.140;6.498;2023-01-10T09:39:20;19.35;;;3.42;;
52878;SDS011;38747;53.140;6.498;2023-01-10T09:44:36;15.37;;;3.10;;
52878;SDS011;38747;53.140;6.498;2023-01-10T09:47:07;21.25;;;2.88;;
52878;SDS011;38747;53.140;6.498;2023-01-10T09:52:10;17.10;;;2.88;;
52878;SDS011;38747;53.140;6.498;2023-01-10T09:54:45;19.95;;;3.03;;
52878;SDS011;38747;53.140;6.498;2023-01-10T09:57:13;24.33;;;3.60;;
52878;SDS011;38747;53.140;6.498;2023-01-10T09:59:41;25.17;;;3.50;;
52878;SDS011;38747;53.140;6.498;2023-01-10T10:07:43;17.08;;;2.97;;
52878;SDS011;38747;53.140;6.498;2023-01-10T10:10:11;16.37;;;3.77;;
52878;SDS011;38747;53.140;6.498;2023-01-10T10:15:17;19.73;;;3.03;;
52878;SDS011;38747;53.140;6.498;2023-01-10T10:31:15;16.33;;;2.80;;
52878;SDS011;38747;53.140;6.498;2023-01-10T10:36:50;14.30;;;2.73;;
52878;SDS011;38747;53.140;6.498;2023-01-10T10:39:29;18.27;;;2.92;;
52878;SDS011;38747;53.140;6.498;2023-01-10T10:42:16;18.35;;;3.15;;
52878;SDS011;38747;53.140;6.498;2023-01-10T10:44:44;18.48;;;2.80;;
52878;SDS011;38747;53.140;6.498;2023-01-10T10:47:17;18.25;;;3.80;;
52878;SDS011;38747;53.140;6.498;2023-01-10T10:49:48;20.77;;;3.00;;
52878;SDS011;38747;53.140;6.498;2023-01-10T10:54:55;15.75;;;2.53;;
52878;SDS011;38747;53.140;6.498;2023-01-10T10:57:23;25.00;;;3.42;;
52878;SDS011;38747;53.140;6.498;2023-01-10T10:59:52;24.90;;;4.45;;
52878;SDS011;38747;53.140;6.498;2023-01-10T11:04:48;21.30;;;3.40;;
52878;SDS011;38747;53.140;6.498;2023-01-10T11:07:16;19.35;;;3.85;;
52878;SDS011;38747;53.140;6.498;2023-01-10T11:09:43;18.77;;;3.95;;
52878;SDS011;38747;53.140;6.498;2023-01-10T11:12:18;24.42;;;4.25;;
52878;SDS011;38747;53.140;6.498;2023-01-10T11:14:55;24.57;;;4.30;;
52878;SDS011;38747;53.140;6.498;2023-01-10T11:17:21;22.08;;;4.93;;
52878;SDS011;38747;53.140;6.498;2023-01-10T11:19:56;26.52;;;4.85;;
52878;SDS011;38747;53.140;6.498;2023-01-10T11:22:36;24.93;;;4.40;;
52878;SDS011;38747;53.140;6.498;2023-01-10T11:25:17;28.85;;;5.18;;
52878;SDS011;38747;53.140;6.498;2023-01-10T11:30:20;22.65;;;4.90;;
52878;SDS011;38747;53.140;6.498;2023-01-10T11:32:51;21.17;;;5.30;;
52878;SDS011;38747;53.140;6.498;2023-01-10T11:35:24;22.77;;;4.83;;
52878;SDS011;38747;53.140;6.498;2023-01-10T11:38:00;23.83;;;6.00;;
52878;SDS011;38747;53.140;6.498;2023-01-10T11:40:29;21.35;;;5.10;;
52878;SDS011;38747;53.140;6.498;2023-01-10T11:42:57;22.15;;;5.60;;
52878;SDS011;38747;53.140;6.498;2023-01-10T11:47:52;25.07;;;5.50;;
52878;SDS011;38747;53.140;6.498;2023-01-10T11:50:36;23.27;;;5.68;;
52878;SDS011;38747;53.140;6.498;2023-01-10T11:53:05;24.33;;;5.90;;
52878;SDS011;38747;53.140;6.498;2023-01-10T11:55:49;20.65;;;6.13;;
52878;SDS011;38747;53.140;6.498;2023-01-10T11:58:15;19.67;;;5.47;;
52878;SDS011;38747;53.140;6.498;2023-01-10T12:00:42;22.15;;;5.60;;
52878;SDS011;38747;53.140;6.498;2023-01-10T12:03:20;25.55;;;5.80;;
52878;SDS011;38747;53.140;6.498;2023-01-10T12:05:54;18.88;;;4.70;;
52878;SDS011;38747;53.140;6.498;2023-01-10T12:11:06;22.02;;;5.35;;
52878;SDS011;38747;53.140;6.498;2023-01-10T12:13:51;24.35;;;4.75;;
52878;SDS011;38747;53.140;6.498;2023-01-10T12:18:59;18.70;;;4.80;;
52878;SDS011;38747;53.140;6.498;2023-01-10T12:21:37;27.73;;;5.80;;
52878;SDS011;38747;53.140;6.498;2023-01-10T12:24:08;23.38;;;4.57;;
52878;SDS011;38747;53.140;6.498;2023-01-10T12:26:39;18.27;;;4.47;;
52878;SDS011;38747;53.140;6.498;2023-01-10T12:29:07;30.42;;;5.82;;
52878;SDS011;38747;53.140;6.498;2023-01-10T12:31:39;20.40;;;4.70;;
52878;SDS011;38747;53.140;6.498;2023-01-10T12:34:09;23.10;;;4.63;;
52878;SDS011;38747;53.140;6.498;2023-01-10T12:39:42;23.15;;;5.53;;
52878;SDS011;38747;53.140;6.498;2023-01-10T12:45:26;20.23;;;5.20;;
52878;SDS011;38747;53.140;6.498;2023-01-10T12:48:05;24.03;;;4.90;;
52878;SDS011;38747;53.140;6.498;2023-01-10T12:51:03;30.58;;;5.97;;
52878;SDS011;38747;53.140;6.498;2023-01-10T12:53:39;20.40;;;4.78;;
52878;SDS011;38747;53.140;6.498;2023-01-10T12:56:28;20.20;;;4.80;;
52878;SDS011;38747;53.140;6.498;2023-01-10T12:58:59;19.27;;;4.10;;
52878;SDS011;38747;53.140;6.498;2023-01-10T13:01:32;20.27;;;4.03;;
52878;SDS011;38747;53.140;6.498;2023-01-10T13:04:15;21.10;;;4.05;;
52878;SDS011;38747;53.140;6.498;2023-01-10T13:06:42;21.85;;;4.40;;
52878;SDS011;38747;53.140;6.498;2023-01-10T13:09:14;17.42;;;4.32;;
52878;SDS011;38747;53.140;6.498;2023-01-10T13:11:50;19.10;;;4.30;;
52878;SDS011;38747;53.140;6.498;2023-01-10T13:14:45;23.10;;;4.20;;
52878;SDS011;38747;53.140;6.498;2023-01-10T13:22:40;22.95;;;4.22;;
52878;SDS011;38747;53.140;6.498;2023-01-10T13:25:29;21.73;;;3.83;;
52878;SDS011;38747;53.140;6.498;2023-01-10T13:27:55;18.27;;;3.97;;
52878;SDS011;38747;53.140;6.498;2023-01-10T13:35:54;21.52;;;4.07;;
52878;SDS011;38747;53.140;6.498;2023-01-10T13:38:38;18.58;;;3.90;;
52878;SDS011;38747;53.140;6.498;2023-01-10T13:41:13;20.13;;;3.27;;
52878;SDS011;38747;53.140;6.498;2023-01-10T13:43:58;22.38;;;3.50;;
52878;SDS011;38747;53.140;6.498;2023-01-10T13:51:19;24.55;;;3.47;;
52878;SDS011;38747;53.140;6.498;2023-01-10T13:59:04;16.92;;;3.08;;
52878;SDS011;38747;53.140;6.498;2023-01-10T14:01:41;19.48;;;3.83;;
52878;SDS011;38747;53.140;6.498;2023-01-10T14:04:33;20.33;;;3.67;;
52878;SDS011;38747;53.140;6.498;2023-01-10T14:08:02;24.83;;;3.42;;
52878;SDS011;38747;53.140;6.498;2023-01-10T14:10:31;16.33;;;3.57;;
52878;SDS011;38747;53.140;6.498;2023-01-10T14:12:58;20.27;;;3.15;;
52878;SDS011;38747;53.140;6.498;2023-01-10T14:15:37;23.50;;;3.75;;
52878;SDS011;38747;53.140;6.498;2023-01-10T14:18:18;21.48;;;3.55;;
52878;SDS011;38747;53.140;6.498;2023-01-10T14:21:02;14.40;;;3.10;;
52878;SDS011;38747;53.140;6.498;2023-01-10T14:23:33;19.20;;;3.53;;
52878;SDS011;38747;53.140;6.498;2023-01-10T14:26:01;16.80;;;3.08;;
52878;SDS011;38747;53.140;6.498;2023-01-10T14:28:30;15.77;;;2.72;;
52878;SDS011;38747;53.140;6.498;2023-01-10T14:31:08;18.73;;;4.22;;
52878;SDS011;38747;53.140;6.498;2023-01-10T14:33:42;24.80;;;3.40;;
52878;SDS011;38747;53.140;6.498;2023-01-10T14:36:12;23.97;;;3.70;;
52878;SDS011;38747;53.140;6.498;2023-01-10T14:38:40;21.25;;;3.15;;
52878;SDS011;38747;53.140;6.498;2023-01-10T14:41:11;17.88;;;2.85;;
52878;SDS011;38747;53.140;6.498;2023-01-10T14:43:53;22.63;;;2.88;;
52878;SDS011;38747;53.140;6.498;2023-01-10T14:46:24;17.08;;;3.17;;
52878;SDS011;38747;53.140;6.498;2023-01-10T14:48:57;14.43;;;2.50;;
52878;SDS011;38747;53.140;6.498;2023-01-10T14:51:28;21.23;;;3.28;;
52878;SDS011;38747;53.140;6.498;2023-01-10T14:53:56;22.02;;;3.08;;
52878;SDS011;38747;53.140;6.498;2023-01-10T14:56:35;17.70;;;2.33;;
52878;SDS011;38747;53.140;6.498;2023-01-10T15:01:51;15.40;;;1.87;;
52878;SDS011;38747;53.140;6.498;2023-01-10T15:04:20;15.85;;;2.67;;
52878;SDS011;38747;53.140;6.498;2023-01-10T15:06:55;16.17;;;3.03;;
52878;SDS011;38747;53.140;6.498;2023-01-10T15:09:24;17.90;;;2.75;;
52878;SDS011;38747;53.140;6.498;2023-01-10T15:11:50;12.45;;;2.42;;
52878;SDS011;38747;53.140;6.498;2023-01-10T15:14:19;16.30;;;2.90;;
52878;SDS011;38747;53.140;6.498;2023-01-10T15:16:47;16.20;;;2.25;;
52878;SDS011;38747;53.140;6.498;2023-01-10T15:19:18;16.02;;;2.15;;
52878;SDS011;38747;53.140;6.498;2023-01-10T15:21:46;15.05;;;2.22;;
52878;SDS011;38747;53.140;6.498;2023-01-10T15:24:32;16.63;;;2.43;;
52878;SDS011;38747;53.140;6.498;2023-01-10T15:27:06;16.63;;;2.90;;
52878;SDS011;38747;53.140;6.498;2023-01-10T15:29:39;12.55;;;2.30;;
52878;SDS011;38747;53.140;6.498;2023-01-10T15:32:13;15.07;;;2.60;;
52878;SDS011;38747;53.140;6.498;2023-01-10T15:35:02;19.90;;;2.35;;
52878;SDS011;38747;53.140;6.498;2023-01-10T15:37:31;21.48;;;3.10;;
52878;SDS011;38747;53.140;6.498;2023-01-10T15:40:03;14.20;;;2.27;;
52878;SDS011;38747;53.140;6.498;2023-01-10T15:42:30;16.02;;;2.25;;
52878;SDS011;38747;53.140;6.498;2023-01-10T15:44:56;17.27;;;2.72;;
52878;SDS011;38747;53.140;6.498;2023-01-10T15:47:50;16.75;;;2.50;;
52878;SDS011;38747;53.140;6.498;2023-01-10T15:50:22;18.43;;;2.53;;
52878;SDS011;38747;53.140;6.498;2023-01-10T15:53:00;19.88;;;3.10;;
52878;SDS011;38747;53.140;6.498;2023-01-10T15:55:35;16.40;;;2.60;;
52878;SDS011;38747;53.140;6.498;2023-01-10T16:00:59;16.35;;;2.38;;
52878;SDS011;38747;53.140;6.498;2023-01-10T16:03:33;11.20;;;2.73;;
52878;SDS011;38747;53.140;6.498;2023-01-10T16:06:01;19.85;;;2.78;;
52878;SDS011;38747;53.140;6.498;2023-01-10T16:08:32;15.85;;;2.65;;
52878;SDS011;38747;53.140;6.498;2023-01-10T16:11:00;18.17;;;2.83;;
52878;SDS011;38747;53.140;6.498;2023-01-10T16:13:29;16.02;;;2.83;;
52878;SDS011;38747;53.140;6.498;2023-01-10T16:15:57;17.00;;;2.47;;
52878;SDS011;38747;53.140;6.498;2023-01-10T16:18:24;16.10;;;3.17;;
52878;SDS011;38747;53.140;6.498;2023-01-10T16:20:51;16.73;;;2.85;;
52878;SDS011;38747;53.140;6.498;2023-01-10T16:23:21;17.35;;;2.72;;
52878;SDS011;38747;53.140;6.498;2023-01-10T16:25:53;12.00;;;2.78;;
52878;SDS011;38747;53.140;6.498;2023-01-10T16:28:20;16.03;;;2.83;;
52878;SDS011;38747;53.140;6.498;2023-01-10T16:30:47;22.23;;;2.85;;
52878;SDS011;38747;53.140;6.498;2023-01-10T16:33:14;13.20;;;3.10;;
52878;SDS011;38747;53.140;6.498;2023-01-10T16:35:42;17.13;;;2.72;;
52878;SDS011;38747;53.140;6.498;2023-01-10T16:38:12;17.30;;;3.70;;
52878;SDS011;38747;53.140;6.498;2023-01-10T16:40:40;17.10;;;2.90;;
52878;SDS011;38747;53.140;6.498;2023-01-10T16:43:10;15.65;;;3.25;;
52878;SDS011;38747;53.140;6.498;2023-01-10T16:45:45;19.92;;;3.20;;
52878;SDS011;38747;53.140;6.498;2023-01-10T16:48:13;19.20;;;4.30;;
52878;SDS011;38747;53.140;6.498;2023-01-10T16:50:41;16.65;;;2.67;;